createdAt,value
2022-11-15T00:01:18.124Z,398.29
2022-11-15T00:03:50.481Z,527.43
2022-11-15T00:06:22.367Z,418.66
2022-11-15T00:08:49.334Z,387.10
2022-11-15T00:11:16.347Z,455.46
2022-11-15T00:13:40.810Z,464.38
2022-11-15T00:16:07.028Z,611.85
2022-11-15T00:18:39.868Z,265.35
2022-11-15T00:21:14.511Z,354.16
2022-11-15T00:23:43.049Z,480.52
2022-11-15T00:26:11.114Z,396.45
2022-11-15T00:28:35.701Z,427.08
2022-11-15T00:31:09.028Z,306.03
2022-11-15T00:33:35.990Z,303.27
2022-11-15T00:36:05.635Z,259.61
2022-11-15T00:38:34.878Z,271.95
2022-11-15T00:40:59.059Z,301.29
2022-11-15T00:43:27.135Z,288.84
2022-11-15T00:45:51.627Z,306.61
2022-11-15T00:48:16.182Z,335.03
2022-11-15T00:52:07.807Z,341.26
2022-11-15T00:54:33.112Z,350.05
2022-11-15T00:56:58.231Z,346.38
2022-11-15T00:59:22.898Z,359.39
2022-11-15T01:01:49.832Z,392.76
2022-11-15T01:04:14.079Z,372.43
2022-11-15T01:06:38.744Z,391.31
2022-11-15T01:09:14.702Z,373.03
2022-11-15T01:11:39.328Z,421.16
2022-11-15T01:14:04.738Z,370.91
2022-11-15T01:16:29.305Z,397.90
2022-11-15T01:19:00.523Z,345.77
2022-11-15T01:21:32.522Z,348.79
2022-11-15T01:24:09.997Z,367.83
2022-11-15T01:26:44.364Z,375.31
2022-11-15T01:29:09.043Z,340.60
2022-11-15T01:31:35.230Z,360.27
2022-11-15T01:34:02.520Z,359.57
2022-11-15T01:36:26.968Z,346.37
2022-11-15T01:38:51.354Z,334.15
2022-11-15T01:41:26.369Z,346.54
2022-11-15T01:43:58.215Z,356.00
2022-11-15T01:46:34.923Z,328.67
2022-11-15T01:49:06.418Z,323.35
2022-11-15T01:51:37.684Z,332.68
2022-11-15T01:54:14.668Z,332.61
2022-11-15T01:56:50.050Z,340.68
2022-11-15T01:59:19.606Z,338.90
2022-11-15T02:01:46.181Z,326.43
2022-11-15T02:04:19.731Z,337.61
2022-11-15T02:06:53.692Z,324.10
2022-11-15T02:09:22.917Z,311.69
2022-11-15T02:11:52.085Z,317.53
2022-11-15T02:14:26.347Z,328.07
2022-11-15T02:17:06.151Z,317.87
2022-11-15T02:20:19.984Z,321.12
2022-11-15T02:23:18.172Z,347.52
2022-11-15T02:25:58.581Z,368.24
2022-11-15T02:28:55.872Z,357.94
2022-11-15T02:31:38.367Z,347.93
2022-11-15T02:34:21.597Z,373.22
2022-11-15T02:36:58.237Z,365.32
2022-11-15T02:39:37.243Z,346.92
2022-11-15T02:42:31.755Z,326.36
2022-11-15T02:45:12.867Z,370.54
2022-11-15T02:47:48.280Z,371.43
2022-11-15T02:50:23.396Z,353.90
2022-11-15T02:52:51.767Z,335.30
2022-11-15T02:55:35.513Z,338.43
2022-11-15T02:58:32.287Z,355.64
2022-11-15T03:01:17.774Z,329.34
2022-11-15T03:04:07.772Z,344.50
2022-11-15T03:06:47.052Z,345.78
2022-11-15T03:09:27.702Z,325.68
2022-11-15T03:12:05.075Z,335.00
2022-11-15T03:14:39.039Z,353.31
2022-11-15T03:17:19.631Z,327.60
2022-11-15T03:20:08.080Z,333.25
2022-11-15T03:22:40.491Z,304.14
2022-11-15T03:25:12.811Z,306.22
2022-11-15T03:27:53.039Z,297.96
2022-11-15T03:30:36.125Z,295.94
2022-11-15T03:33:07.942Z,313.03
2022-11-15T03:35:44.553Z,312.28
2022-11-15T03:38:23.617Z,302.05
2022-11-15T03:41:02.474Z,286.69
2022-11-15T03:43:40.178Z,263.81
2022-11-15T03:46:11.883Z,269.35
2022-11-15T03:48:46.868Z,257.42
2022-11-15T03:51:20.209Z,255.00
2022-11-15T03:53:46.225Z,247.70
2022-11-15T03:56:11.292Z,266.43
2022-11-15T03:58:38.359Z,280.57
2022-11-15T04:01:03.846Z,295.42
2022-11-15T04:03:28.313Z,319.35
2022-11-15T04:05:53.677Z,311.49
2022-11-15T04:08:30.615Z,332.88
2022-11-15T04:10:56.236Z,332.10
2022-11-15T04:13:20.560Z,338.05
2022-11-15T04:15:45.897Z,343.90
2022-11-15T04:18:13.118Z,348.77
2022-11-15T04:20:50.662Z,356.11
2022-11-15T04:23:31.842Z,371.60
2022-11-15T04:26:03.260Z,400.52
2022-11-15T04:28:28.362Z,409.27
2022-11-15T04:30:53.108Z,455.40
2022-11-15T04:33:18.546Z,414.40
2022-11-15T04:35:43.792Z,447.89
2022-11-15T04:38:08.993Z,503.95
2022-11-15T04:40:33.638Z,448.29
2022-11-15T04:43:04.831Z,422.26
2022-11-15T04:45:30.422Z,418.25
2022-11-15T04:47:56.178Z,412.65
2022-11-15T04:50:21.450Z,404.49
2022-11-15T04:52:53.529Z,361.33
2022-11-15T04:55:18.138Z,385.75
2022-11-15T04:57:43.084Z,407.88
2022-11-15T05:00:14.975Z,368.71
2022-11-15T05:02:51.687Z,372.67
2022-11-15T05:05:16.842Z,346.60
2022-11-15T05:07:41.271Z,348.50
2022-11-15T05:10:05.469Z,365.84
2022-11-15T05:12:38.397Z,358.52
2022-11-15T05:15:07.758Z,347.10
2022-11-15T05:17:34.705Z,394.97
2022-11-15T05:20:00.167Z,361.42
2022-11-15T05:22:26.339Z,334.88
2022-11-15T05:24:50.695Z,348.60
2022-11-15T05:27:16.020Z,359.34
2022-11-15T05:29:40.238Z,334.04
2022-11-15T05:32:04.747Z,303.54
2022-11-15T05:34:32.875Z,279.77
2022-11-15T05:36:57.951Z,290.14
2022-11-15T05:39:22.324Z,316.24
2022-11-15T05:41:54.679Z,308.65
2022-11-15T05:44:27.467Z,309.68
2022-11-15T05:46:57.174Z,289.47
2022-11-15T05:49:31.723Z,291.96
2022-11-15T05:52:00.759Z,292.01
2022-11-15T05:54:29.375Z,324.68
2022-11-15T05:56:54.354Z,351.19
2022-11-15T05:59:22.107Z,345.41
2022-11-15T06:01:46.368Z,335.04
2022-11-15T06:04:11.002Z,361.03
2022-11-15T06:06:36.462Z,315.34
2022-11-15T06:09:03.382Z,289.46
2022-11-15T06:11:27.427Z,279.14
2022-11-15T06:13:52.975Z,287.65
2022-11-15T06:16:17.481Z,287.05
2022-11-15T06:18:42.968Z,294.47
2022-11-15T06:21:09.218Z,289.09
2022-11-15T06:23:37.633Z,268.44
2022-11-15T06:26:06.988Z,276.12
2022-11-15T06:28:33.123Z,262.79
2022-11-15T06:30:57.462Z,275.13
2022-11-15T06:33:21.808Z,275.98
2022-11-15T06:35:47.019Z,282.38
2022-11-15T06:38:15.925Z,296.76
2022-11-15T06:40:42.691Z,338.82
2022-11-15T06:43:11.162Z,330.64
2022-11-15T06:45:36.341Z,331.17
2022-11-15T06:48:01.026Z,311.55
2022-11-15T06:50:26.024Z,289.83
2022-11-15T06:52:50.539Z,298.77
2022-11-15T06:55:14.987Z,297.46
2022-11-15T06:57:40.926Z,256.11
2022-11-15T07:00:10.495Z,274.50
2022-11-15T07:02:35.300Z,295.44
2022-11-15T07:05:00.398Z,273.38
2022-11-15T07:07:24.634Z,281.06
2022-11-15T07:09:49.058Z,287.54
2022-11-15T07:12:13.972Z,301.80
2022-11-15T07:14:38.364Z,292.74
2022-11-15T07:17:08.424Z,322.49
2022-11-15T07:19:33.446Z,330.43
2022-11-15T07:21:57.587Z,350.27
2022-11-15T07:24:21.704Z,392.93
2022-11-15T07:26:46.946Z,387.48
2022-11-15T07:29:11.151Z,381.74
2022-11-15T07:31:35.572Z,374.08
2022-11-15T07:34:03.699Z,347.34
2022-11-15T07:36:28.892Z,336.90
2022-11-15T07:38:53.191Z,385.17
2022-11-15T07:41:20.886Z,386.64
2022-11-15T07:43:45.034Z,389.37
2022-11-15T07:46:11.870Z,401.25
2022-11-15T07:48:45.596Z,476.66
2022-11-15T07:51:17.010Z,430.38
2022-11-15T07:53:46.489Z,415.57
2022-11-15T07:56:12.651Z,402.18
2022-11-15T07:58:37.050Z,368.31
2022-11-15T08:01:02.395Z,401.76
2022-11-15T08:03:26.800Z,371.64
2022-11-15T08:05:55.684Z,358.52
2022-11-15T08:08:23.710Z,354.31
2022-11-15T08:10:48.165Z,358.92
2022-11-15T08:13:15.561Z,387.86
2022-11-15T08:15:41.911Z,397.14
2022-11-15T08:18:10.383Z,401.78
2022-11-15T08:20:35.864Z,399.49
2022-11-15T08:23:02.358Z,408.82
2022-11-15T08:25:31.046Z,396.81
2022-11-15T08:27:57.032Z,404.73
2022-11-15T08:30:22.268Z,388.04
2022-11-15T08:32:46.956Z,391.27
2022-11-15T08:35:12.257Z,412.45
2022-11-15T08:37:37.319Z,396.62
2022-11-15T08:40:01.954Z,392.53
2022-11-15T08:42:29.010Z,398.67
2022-11-15T08:44:55.733Z,404.11
2022-11-15T08:47:20.011Z,386.12
2022-11-15T08:49:44.110Z,369.97
2022-11-15T08:52:09.785Z,371.73
2022-11-15T08:54:33.958Z,373.53
2022-11-15T08:56:58.374Z,382.94
2022-11-15T08:59:27.238Z,379.33
2022-11-15T09:01:51.649Z,376.11
2022-11-15T09:04:16.033Z,379.92
2022-11-15T09:06:43.299Z,372.57
2022-11-15T09:09:07.955Z,361.72
2022-11-15T09:11:32.270Z,368.17
2022-11-15T09:14:00.236Z,360.70
2022-11-15T09:16:27.497Z,365.24
2022-11-15T09:18:52.153Z,350.40
2022-11-15T09:21:17.999Z,350.83
2022-11-15T09:23:42.540Z,330.49
2022-11-15T09:26:09.602Z,326.39
2022-11-15T09:28:39.363Z,337.12
2022-11-15T09:31:06.965Z,346.55
2022-11-15T09:33:35.816Z,343.21
2022-11-15T09:36:07.842Z,334.23
2022-11-15T09:38:32.988Z,322.40
2022-11-15T09:41:37.868Z,327.52
2022-11-15T09:44:36.829Z,361.71
2022-11-15T09:47:33.224Z,359.43
2022-11-15T09:50:21.577Z,336.33
2022-11-15T09:52:28.312Z,342.00
2022-11-15T09:54:52.840Z,329.98
2022-11-15T09:57:16.259Z,328.43
2022-11-15T09:59:51.385Z,325.35
2022-11-15T10:02:16.865Z,313.55
2022-11-15T10:04:24.900Z,312.46
2022-11-15T10:06:40.085Z,321.37
2022-11-15T10:09:05.054Z,311.64
2022-11-15T10:13:51.441Z,313.47
2022-11-15T10:16:08.423Z,319.77
2022-11-15T10:18:38.589Z,320.23
2022-11-15T10:20:53.251Z,308.75
2022-11-15T10:23:10.701Z,311.58
2022-11-15T10:25:24.335Z,310.64
2022-11-15T10:27:30.074Z,302.02
2022-11-15T10:29:35.753Z,299.76
2022-11-15T10:31:45.475Z,307.43
2022-11-15T10:33:51.327Z,299.56
2022-11-15T10:36:27.714Z,299.81
2022-11-15T10:38:36.995Z,309.46
2022-11-15T10:40:46.125Z,303.98
2022-11-15T10:43:07.576Z,314.24
2022-11-15T10:45:34.510Z,328.80
2022-11-15T10:47:40.186Z,324.26
2022-11-15T10:50:03.685Z,325.32
2022-11-15T10:52:25.184Z,347.78
2022-11-15T10:54:45.000Z,327.18
2022-11-15T10:56:55.100Z,328.29
2022-11-15T10:59:14.745Z,311.94
2022-11-15T11:01:34.222Z,327.97
2022-11-15T11:03:45.582Z,312.36
2022-11-15T11:05:52.302Z,313.08
2022-11-15T11:08:04.138Z,298.64
2022-11-15T11:12:52.721Z,283.78
2022-11-15T11:14:58.558Z,289.30
2022-11-15T11:17:17.672Z,287.56
2022-11-15T11:20:05.845Z,296.63
2022-11-15T11:22:29.434Z,275.42
2022-11-15T11:24:45.112Z,259.91
2022-11-15T11:27:16.619Z,279.16
2022-11-15T11:29:42.699Z,275.54
2022-11-15T11:32:08.202Z,250.98
2022-11-15T11:34:34.738Z,251.06
2022-11-15T11:36:57.603Z,231.22
2022-11-15T11:39:39.233Z,231.40
2022-11-15T11:42:06.178Z,241.47
2022-11-15T11:44:34.674Z,229.39
2022-11-15T11:46:58.004Z,239.00
2022-11-15T11:49:15.659Z,233.51
2022-11-15T11:51:31.599Z,240.31
2022-11-15T11:53:50.519Z,222.95
2022-11-15T11:56:04.970Z,219.42
2022-11-15T11:58:23.742Z,225.12
2022-11-15T12:00:34.684Z,237.34
2022-11-15T12:02:48.952Z,247.63
2022-11-15T12:05:07.436Z,264.34
2022-11-15T12:07:24.524Z,251.23
2022-11-15T12:09:40.821Z,249.53
2022-11-15T12:12:02.325Z,231.09
2022-11-15T12:14:36.229Z,248.79
2022-11-15T12:16:55.747Z,228.23
2022-11-15T12:19:08.092Z,208.35
2022-11-15T12:21:31.373Z,224.29
2022-11-15T12:23:49.665Z,257.46
2022-11-15T12:26:05.986Z,245.67
2022-11-15T12:28:25.212Z,265.37
2022-11-15T12:30:53.216Z,284.17
2022-11-15T12:33:04.096Z,275.67
2022-11-15T12:35:30.628Z,305.71
2022-11-15T12:37:56.400Z,295.61
2022-11-15T12:40:33.002Z,252.34
2022-11-15T12:42:47.107Z,241.83
2022-11-15T12:45:03.186Z,248.20
2022-11-15T12:47:30.145Z,230.12
2022-11-15T12:49:51.459Z,265.37
2022-11-15T12:52:14.730Z,302.14
2022-11-15T12:54:55.064Z,316.66
2022-11-15T12:57:32.857Z,369.05
2022-11-15T12:59:56.349Z,336.43
2022-11-15T13:02:04.605Z,313.45
2022-11-15T13:04:27.971Z,319.16
2022-11-15T13:06:50.884Z,340.03
2022-11-15T13:08:57.253Z,354.45
2022-11-15T13:11:38.109Z,349.30
2022-11-15T13:13:49.447Z,355.01
2022-11-15T13:16:04.879Z,307.14
2022-11-15T13:18:35.035Z,318.92
2022-11-15T13:20:49.705Z,345.30
2022-11-15T13:23:03.334Z,318.83
2022-11-15T13:25:25.272Z,359.20
2022-11-15T13:27:33.278Z,359.13
2022-11-15T13:29:39.005Z,324.85
2022-11-15T13:31:51.513Z,298.96
2022-11-15T13:34:22.922Z,291.91
2022-11-15T13:36:38.185Z,277.74
2022-11-15T13:38:45.892Z,286.44
2022-11-15T13:40:52.470Z,308.10
2022-11-15T13:42:58.855Z,336.27
2022-11-15T13:45:21.140Z,371.49
2022-11-15T13:47:32.838Z,450.84
2022-11-15T13:49:39.685Z,515.62
2022-11-15T13:51:58.527Z,672.19
2022-11-15T13:54:24.533Z,639.37
2022-11-15T13:56:35.277Z,644.85
2022-11-15T13:58:43.223Z,628.44
2022-11-15T14:00:51.501Z,639.67
2022-11-15T14:03:00.932Z,585.68
2022-11-15T14:05:25.102Z,565.27
2022-11-15T14:07:43.271Z,569.52
2022-11-15T14:09:52.597Z,568.44
2022-11-15T14:12:00.957Z,705.07
2022-11-15T14:14:18.707Z,689.43
2022-11-15T14:16:37.366Z,683.18
2022-11-15T14:18:55.096Z,699.09
2022-11-15T14:21:10.920Z,712.67
2022-11-15T14:23:31.448Z,681.16
2022-11-15T14:25:39.387Z,647.22
2022-11-15T14:27:48.633Z,622.98
2022-11-15T14:29:54.922Z,646.87
2022-11-15T14:32:20.318Z,670.30
2022-11-15T14:34:26.851Z,688.25
2022-11-15T14:36:32.563Z,730.47
2022-11-15T14:38:40.987Z,800.18
2022-11-15T14:40:49.767Z,857.31
2022-11-15T14:42:55.495Z,857.47
2022-11-15T14:45:09.268Z,792.79
2022-11-15T14:47:19.301Z,724.21
2022-11-15T14:49:24.952Z,694.98
2022-11-15T14:51:30.610Z,669.71
2022-11-15T14:53:37.098Z,646.88
2022-11-15T14:55:53.053Z,646.61
2022-11-15T14:57:59.515Z,654.12
2022-11-15T15:00:21.114Z,641.22
2022-11-15T15:02:30.904Z,628.83
2022-11-15T15:04:36.646Z,633.86
2022-11-15T15:06:46.225Z,671.67
2022-11-15T15:08:52.242Z,702.27
2022-11-15T15:11:00.789Z,671.74
2022-11-15T15:13:08.037Z,671.92
2022-11-15T15:15:27.576Z,793.45
2022-11-15T15:17:33.291Z,976.53
2022-11-15T15:19:39.807Z,1089.61
2022-11-15T15:21:45.518Z,1047.59
2022-11-15T15:23:51.620Z,1100.49
2022-11-15T15:26:04.964Z,1019.85
2022-11-15T15:28:10.678Z,922.96
2022-11-15T15:30:17.505Z,968.89
2022-11-15T15:32:24.142Z,1325.57
2022-11-15T15:34:29.928Z,1127.13
2022-11-15T15:36:35.761Z,1214.37
2022-11-15T15:38:42.882Z,1254.86
2022-11-15T15:40:51.357Z,1149.64
2022-11-15T15:43:01.628Z,1070.14
2022-11-15T15:45:10.028Z,912.33
2022-11-15T15:47:19.911Z,933.97
2022-11-15T15:49:25.749Z,993.16
2022-11-15T15:51:32.305Z,1012.15
2022-11-15T15:53:38.961Z,999.14
2022-11-15T15:55:47.800Z,935.82
2022-11-15T15:57:54.954Z,957.30
2022-11-15T16:00:03.303Z,960.35
2022-11-15T16:02:18.641Z,935.36
2022-11-15T16:04:25.711Z,877.79
2022-11-15T16:06:45.348Z,867.60
2022-11-15T16:09:13.462Z,863.28
2022-11-15T16:11:17.957Z,1017.49
2022-11-15T16:13:24.392Z,1170.31
2022-11-15T16:15:35.991Z,1460.84
2022-11-15T16:17:49.449Z,1507.83
2022-11-15T16:19:55.218Z,1463.27
2022-11-15T16:22:00.918Z,1383.00
2022-11-15T16:24:08.953Z,1344.73
2022-11-15T16:26:25.905Z,1308.13
2022-11-15T16:28:36.940Z,1279.97
2022-11-15T16:30:55.390Z,1377.78
2022-11-15T16:33:02.515Z,1362.26
2022-11-15T16:35:09.380Z,1309.52
2022-11-15T16:37:27.024Z,1259.41
2022-11-15T16:39:39.321Z,1381.28
2022-11-15T16:41:56.526Z,1366.80
2022-11-15T16:44:03.100Z,1255.26
2022-11-15T16:46:20.520Z,1094.40
2022-11-15T16:48:29.672Z,916.32
2022-11-15T16:50:43.233Z,816.17
2022-11-15T16:52:49.001Z,765.91
2022-11-15T16:54:54.722Z,791.18
2022-11-15T16:57:01.282Z,808.22
2022-11-15T16:59:07.094Z,904.80
2022-11-15T17:01:25.120Z,1051.99
2022-11-15T17:03:32.235Z,1050.71
2022-11-15T17:05:37.972Z,973.47
2022-11-15T17:07:49.144Z,925.01
2022-11-15T17:09:55.695Z,884.22
2022-11-15T17:12:08.303Z,977.90
2022-11-15T17:14:16.532Z,1191.86
2022-11-15T17:16:25.853Z,1263.38
2022-11-15T17:18:31.744Z,1204.51
2022-11-15T17:20:37.721Z,1103.64
2022-11-15T17:22:44.494Z,1097.64
2022-11-15T17:24:50.716Z,1021.96
2022-11-15T17:26:56.468Z,998.59
2022-11-15T17:29:06.312Z,1011.18
2022-11-15T17:31:14.782Z,992.60
2022-11-15T17:33:23.078Z,935.33
2022-11-15T17:35:31.596Z,1013.64
2022-11-15T17:37:37.847Z,1074.69
2022-11-15T17:39:45.970Z,1086.55
2022-11-15T17:41:52.922Z,1129.38
2022-11-15T17:44:05.799Z,1107.44
2022-11-15T17:46:17.704Z,1088.89
2022-11-15T17:48:26.932Z,1083.99
2022-11-15T17:50:34.134Z,1109.94
2022-11-15T17:52:39.852Z,1178.63
2022-11-15T17:54:48.570Z,1173.41
2022-11-15T17:56:54.232Z,1074.06
2022-11-15T17:59:03.173Z,1064.06
2022-11-15T18:01:12.710Z,1127.65
2022-11-15T18:03:18.762Z,1250.74
2022-11-15T18:05:27.105Z,1133.43
2022-11-15T18:07:33.975Z,1041.97
2022-11-15T18:09:42.503Z,1023.91
2022-11-15T18:11:53.783Z,1056.04
2022-11-15T18:14:03.887Z,1023.97
2022-11-15T18:16:14.556Z,1071.96
2022-11-15T18:18:20.345Z,1033.91
2022-11-15T18:20:29.594Z,1014.10
2022-11-15T18:22:35.317Z,1041.21
2022-11-15T18:24:43.092Z,1085.49
2022-11-15T18:26:49.669Z,1103.56
2022-11-15T18:28:57.550Z,1092.18
2022-11-15T18:31:06.269Z,1126.86
2022-11-15T18:33:12.807Z,1142.75
2022-11-15T18:35:18.695Z,1216.32
2022-11-15T18:37:34.823Z,1238.42
2022-11-15T18:39:41.399Z,1211.80
2022-11-15T18:41:49.493Z,1228.76
2022-11-15T19:11:59.069Z,1296.91
2022-11-15T19:14:09.902Z,1340.72
2022-11-15T19:16:19.161Z,1336.50
2022-11-15T19:18:24.916Z,1295.57
2022-11-15T19:20:31.439Z,1288.63
2022-11-15T19:22:37.261Z,1273.50
2022-11-15T19:24:43.008Z,1249.93
2022-11-15T19:26:49.746Z,1304.88
2022-11-15T19:29:00.645Z,1333.84
2022-11-15T19:31:10.444Z,1257.71
2022-11-15T19:33:17.278Z,1254.89
2022-11-15T19:35:32.675Z,1279.89
2022-11-15T19:37:40.608Z,1231.91
2022-11-15T19:39:47.201Z,1219.02
2022-11-15T19:41:53.773Z,1266.45
2022-11-15T19:44:09.084Z,1317.35
2022-11-15T19:46:18.718Z,1280.05
2022-11-15T19:48:25.063Z,1264.18
2022-11-15T19:50:30.846Z,1268.09
2022-11-15T19:52:37.499Z,1209.48
2022-11-15T19:54:47.452Z,1120.21
2022-11-15T19:56:56.462Z,1061.08
2022-11-15T19:59:06.835Z,1021.55
2022-11-15T20:01:21.066Z,995.06
2022-11-15T20:03:28.396Z,941.79
2022-11-15T20:05:34.892Z,929.06
2022-11-15T20:07:40.877Z,903.72
2022-11-15T20:09:54.548Z,955.03
2022-11-15T20:12:01.201Z,1708.02
2022-11-15T20:14:11.876Z,1035.43
2022-11-15T20:16:21.971Z,990.38
2022-11-15T20:18:33.581Z,1013.37
2022-11-15T20:20:39.619Z,972.21
2022-11-15T20:22:45.689Z,954.73
2022-11-15T20:24:52.211Z,986.70
2022-11-15T20:26:57.928Z,989.56
2022-11-15T20:29:13.813Z,963.84
2022-11-15T20:31:22.027Z,948.30
2022-11-15T20:33:29.691Z,1001.44
2022-11-15T20:35:35.452Z,1075.67
2022-11-15T20:37:42.866Z,1147.69
2022-11-15T20:39:48.789Z,1190.46
2022-11-15T20:41:54.467Z,1141.41
2022-11-15T20:45:49.326Z,1082.83
2022-11-15T20:48:19.005Z,1062.87
2022-11-15T20:50:41.584Z,1033.05
2022-11-15T20:52:48.805Z,1047.27
2022-11-15T20:54:55.658Z,1046.88
2022-11-15T20:57:01.506Z,1063.28
2022-11-15T20:59:07.338Z,1069.44
2022-11-15T21:01:23.917Z,1073.85
2022-11-15T21:05:33.386Z,1015.00
2022-11-15T21:07:45.023Z,982.90
2022-11-15T21:10:03.186Z,980.05
2022-11-15T21:12:12.805Z,959.36
2022-11-15T21:14:19.507Z,930.37
2022-11-15T21:16:25.289Z,922.05
2022-11-15T21:18:31.201Z,898.89
2022-11-15T21:20:42.985Z,908.85
2022-11-15T21:22:49.672Z,928.64
2022-11-15T21:24:59.083Z,966.40
2022-11-15T21:27:05.767Z,1010.60
2022-11-15T21:29:17.462Z,1023.47
2022-11-15T21:31:23.341Z,1068.74
2022-11-15T21:33:34.465Z,1089.81
2022-11-15T21:35:46.478Z,1120.57
2022-11-15T21:37:57.064Z,1244.83
2022-11-15T21:40:03.917Z,1341.73
2022-11-15T21:42:09.752Z,1311.54
2022-11-15T21:44:15.483Z,1274.24
2022-11-15T21:46:23.130Z,1291.75
2022-11-15T21:48:33.395Z,1316.62
2022-11-15T21:50:39.317Z,1332.32
2022-11-15T21:52:54.636Z,1305.09
2022-11-15T21:55:00.380Z,1222.63
2022-11-15T21:57:20.592Z,1059.14
2022-11-15T21:59:27.292Z,956.51
2022-11-15T22:01:45.543Z,897.28
2022-11-15T22:03:55.213Z,834.93
2022-11-15T22:06:02.069Z,886.95
2022-11-15T22:08:10.456Z,1129.66
2022-11-15T22:10:17.031Z,1175.11
2022-11-15T22:12:27.084Z,1068.72
2022-11-15T22:14:35.368Z,1031.95
2022-11-15T22:16:41.575Z,1015.94
2022-11-15T22:18:48.238Z,1037.61
2022-11-15T22:20:58.621Z,1069.78
2022-11-15T22:23:04.571Z,1118.23
2022-11-15T22:25:14.109Z,1117.85
2022-11-15T22:27:19.868Z,1164.61
2022-11-15T22:29:25.783Z,1148.15
2022-11-15T22:31:32.403Z,1121.81
2022-11-15T22:33:43.142Z,1118.92
2022-11-15T22:35:51.771Z,1155.28
2022-11-15T22:38:01.725Z,1135.71
2022-11-15T22:40:09.984Z,1154.14
2022-11-15T22:42:23.382Z,1141.96
2022-11-15T22:44:40.589Z,1134.33
2022-11-15T22:46:46.362Z,1099.36
2022-11-15T22:48:52.125Z,1081.78
2022-11-15T22:51:01.589Z,1110.97
2022-11-15T22:53:10.904Z,1123.50
2022-11-15T22:55:18.048Z,1138.77
2022-11-15T22:57:27.285Z,1162.76
2022-11-15T22:59:36.537Z,1182.03
2022-11-15T23:01:45.397Z,1173.53
2022-11-15T23:03:57.363Z,1194.48
2022-11-15T23:06:10.378Z,1185.89
2022-11-15T23:08:17.159Z,1192.68
2022-11-15T23:10:36.140Z,1160.03
2022-11-15T23:12:56.961Z,1137.77
2022-11-15T23:15:02.735Z,1139.24
2022-11-15T23:17:09.541Z,1121.91
2022-11-15T23:19:16.182Z,1114.65
2022-11-15T23:21:38.216Z,1106.65
2022-11-15T23:23:45.186Z,1088.84
2022-11-15T23:25:51.081Z,1078.46
2022-11-15T23:27:59.566Z,1068.30
2022-11-15T23:30:19.147Z,1061.99
2022-11-15T23:32:38.082Z,1053.94
2022-11-15T23:34:47.434Z,1028.33
2022-11-15T23:36:54.354Z,1043.62
2022-11-15T23:39:00.192Z,1037.35
2022-11-15T23:41:07.609Z,1026.04
2022-11-15T23:43:16.881Z,1032.08
2022-11-15T23:45:22.659Z,1011.42
2022-11-15T23:47:59.954Z,993.78
2022-11-15T23:50:08.982Z,1038.96
2022-11-15T23:52:15.670Z,1055.71
2022-11-15T23:54:21.477Z,1063.17
2022-11-15T23:56:28.525Z,1059.58
2022-11-15T23:58:35.199Z,1075.26
